sensor_id;sensor_type;location;lat;lon;timestamp;P1;durP1;ratioP1;P2;durP2;ratioP2
10884;SDS011;5495;53.252;10.390;2023-05-07T00:00:42;6.90;;;4.97;;
10884;SDS011;5495;53.252;10.390;2023-05-07T00:03:08;6.80;;;4.67;;
10884;SDS011;5495;53.252;10.390;2023-05-07T00:05:36;5.23;;;4.20;;
10884;SDS011;5495;53.252;10.390;2023-05-07T00:08:04;6.03;;;4.97;;
10884;SDS011;5495;53.252;10.390;2023-05-07T00:10:34;7.30;;;4.43;;
10884;SDS011;5495;53.252;10.390;2023-05-07T00:13:03;6.43;;;4.63;;
10884;SDS011;5495;53.252;10.390;2023-05-07T00:15:30;5.60;;;4.30;;
10884;SDS011;5495;53.252;10.390;2023-05-07T00:17:59;5.37;;;4.50;;
10884;SDS011;5495;53.252;10.390;2023-05-07T00:20:26;6.17;;;5.07;;
10884;SDS011;5495;53.252;10.390;2023-05-07T00:22:53;5.00;;;4.50;;
10884;SDS011;5495;53.252;10.390;2023-05-07T00:25:19;6.03;;;4.97;;
10884;SDS011;5495;53.252;10.390;2023-05-07T00:27:46;6.50;;;4.50;;
10884;SDS011;5495;53.252;10.390;2023-05-07T00:30:13;5.70;;;4.60;;
10884;SDS011;5495;53.252;10.390;2023-05-07T00:32:41;6.43;;;4.43;;
10884;SDS011;5495;53.252;10.390;2023-05-07T00:35:11;6.93;;;4.90;;
10884;SDS011;5495;53.252;10.390;2023-05-07T00:37:38;6.37;;;4.90;;
10884;SDS011;5495;53.252;10.390;2023-05-07T00:40:06;7.90;;;5.07;;
10884;SDS011;5495;53.252;10.390;2023-05-07T00:42:33;5.90;;;4.53;;
10884;SDS011;5495;53.252;10.390;2023-05-07T00:45:00;5.83;;;4.57;;
10884;SDS011;5495;53.252;10.390;2023-05-07T00:47:27;6.43;;;4.63;;
10884;SDS011;5495;53.252;10.390;2023-05-07T00:49:55;5.70;;;4.80;;
10884;SDS011;5495;53.252;10.390;2023-05-07T00:52:25;6.27;;;4.80;;
10884;SDS011;5495;53.252;10.390;2023-05-07T00:54:52;5.97;;;4.90;;
10884;SDS011;5495;53.252;10.390;2023-05-07T00:57:20;6.20;;;5.03;;
10884;SDS011;5495;53.252;10.390;2023-05-07T00:59:50;7.33;;;5.20;;
10884;SDS011;5495;53.252;10.390;2023-05-07T01:02:18;5.90;;;5.00;;
10884;SDS011;5495;53.252;10.390;2023-05-07T01:04:45;5.93;;;4.43;;
10884;SDS011;5495;53.252;10.390;2023-05-07T01:07:11;5.67;;;4.37;;
10884;SDS011;5495;53.252;10.390;2023-05-07T01:09:41;5.23;;;4.73;;
10884;SDS011;5495;53.252;10.390;2023-05-07T01:12:08;6.30;;;5.17;;
10884;SDS011;5495;53.252;10.390;2023-05-07T01:14:35;6.67;;;4.77;;
10884;SDS011;5495;53.252;10.390;2023-05-07T01:17:02;7.73;;;5.13;;
10884;SDS011;5495;53.252;10.390;2023-05-07T01:19:29;6.97;;;5.23;;
10884;SDS011;5495;53.252;10.390;2023-05-07T01:21:59;6.73;;;5.07;;
10884;SDS011;5495;53.252;10.390;2023-05-07T01:24:31;6.30;;;4.77;;
10884;SDS011;5495;53.252;10.390;2023-05-07T01:26:59;5.40;;;4.73;;
10884;SDS011;5495;53.252;10.390;2023-05-07T01:29:27;6.80;;;5.30;;
10884;SDS011;5495;53.252;10.390;2023-05-07T01:31:54;8.33;;;5.43;;
10884;SDS011;5495;53.252;10.390;2023-05-07T01:34:24;5.93;;;4.73;;
10884;SDS011;5495;53.252;10.390;2023-05-07T01:36:53;6.40;;;5.47;;
10884;SDS011;5495;53.252;10.390;2023-05-07T01:39:23;6.17;;;5.00;;
10884;SDS011;5495;53.252;10.390;2023-05-07T01:41:52;6.77;;;5.13;;
10884;SDS011;5495;53.252;10.390;2023-05-07T01:44:20;6.97;;;5.10;;
10884;SDS011;5495;53.252;10.390;2023-05-07T01:46:48;6.37;;;5.33;;
10884;SDS011;5495;53.252;10.390;2023-05-07T01:49:16;5.57;;;4.90;;
10884;SDS011;5495;53.252;10.390;2023-05-07T01:51:43;6.83;;;5.77;;
10884;SDS011;5495;53.252;10.390;2023-05-07T01:54:11;6.70;;;5.63;;
10884;SDS011;5495;53.252;10.390;2023-05-07T01:56:53;6.33;;;5.03;;
10884;SDS011;5495;53.252;10.390;2023-05-07T01:59:20;7.73;;;6.00;;
10884;SDS011;5495;53.252;10.390;2023-05-07T02:01:47;7.07;;;5.77;;
10884;SDS011;5495;53.252;10.390;2023-05-07T02:04:14;7.13;;;5.33;;
10884;SDS011;5495;53.252;10.390;2023-05-07T02:06:40;5.53;;;4.93;;
10884;SDS011;5495;53.252;10.390;2023-05-07T02:09:07;8.03;;;5.77;;
10884;SDS011;5495;53.252;10.390;2023-05-07T02:11:34;8.33;;;6.30;;
10884;SDS011;5495;53.252;10.390;2023-05-07T02:14:03;8.20;;;6.60;;
10884;SDS011;5495;53.252;10.390;2023-05-07T02:16:30;6.93;;;5.00;;
10884;SDS011;5495;53.252;10.390;2023-05-07T02:18:57;7.43;;;6.07;;
10884;SDS011;5495;53.252;10.390;2023-05-07T02:21:24;6.53;;;5.37;;
10884;SDS011;5495;53.252;10.390;2023-05-07T02:23:51;7.47;;;6.20;;
10884;SDS011;5495;53.252;10.390;2023-05-07T02:26:18;8.57;;;5.83;;
10884;SDS011;5495;53.252;10.390;2023-05-07T02:28:46;7.37;;;6.20;;
10884;SDS011;5495;53.252;10.390;2023-05-07T02:31:14;8.43;;;5.40;;
10884;SDS011;5495;53.252;10.390;2023-05-07T02:33:41;8.73;;;6.43;;
10884;SDS011;5495;53.252;10.390;2023-05-07T02:36:11;8.50;;;6.57;;
10884;SDS011;5495;53.252;10.390;2023-05-07T02:38:38;8.33;;;6.60;;
10884;SDS011;5495;53.252;10.390;2023-05-07T02:41:05;8.47;;;5.73;;
10884;SDS011;5495;53.252;10.390;2023-05-07T02:43:32;8.27;;;6.23;;
10884;SDS011;5495;53.252;10.390;2023-05-07T02:46:02;8.53;;;6.43;;
10884;SDS011;5495;53.252;10.390;2023-05-07T02:48:31;8.23;;;6.40;;
10884;SDS011;5495;53.252;10.390;2023-05-07T02:50:59;8.17;;;6.20;;
10884;SDS011;5495;53.252;10.390;2023-05-07T02:53:27;7.53;;;6.23;;
10884;SDS011;5495;53.252;10.390;2023-05-07T02:55:55;9.20;;;6.20;;
10884;SDS011;5495;53.252;10.390;2023-05-07T02:58:23;7.83;;;6.27;;
10884;SDS011;5495;53.252;10.390;2023-05-07T03:00:50;9.27;;;6.50;;
10884;SDS011;5495;53.252;10.390;2023-05-07T03:03:17;8.73;;;6.70;;
10884;SDS011;5495;53.252;10.390;2023-05-07T03:05:45;7.77;;;6.03;;
10884;SDS011;5495;53.252;10.390;2023-05-07T03:08:12;7.40;;;6.20;;
10884;SDS011;5495;53.252;10.390;2023-05-07T03:10:39;7.67;;;5.87;;
10884;SDS011;5495;53.252;10.390;2023-05-07T03:13:06;7.43;;;6.37;;
10884;SDS011;5495;53.252;10.390;2023-05-07T03:15:33;8.20;;;6.00;;
10884;SDS011;5495;53.252;10.390;2023-05-07T03:18:00;6.77;;;5.50;;
10884;SDS011;5495;53.252;10.390;2023-05-07T03:20:27;7.77;;;6.43;;
10884;SDS011;5495;53.252;10.390;2023-05-07T03:22:57;7.53;;;6.00;;
10884;SDS011;5495;53.252;10.390;2023-05-07T03:25:23;8.70;;;6.43;;
10884;SDS011;5495;53.252;10.390;2023-05-07T03:27:50;8.63;;;6.20;;
10884;SDS011;5495;53.252;10.390;2023-05-07T03:30:17;9.53;;;6.07;;
10884;SDS011;5495;53.252;10.390;2023-05-07T03:32:45;7.70;;;5.57;;
10884;SDS011;5495;53.252;10.390;2023-05-07T03:35:12;8.63;;;6.47;;
10884;SDS011;5495;53.252;10.390;2023-05-07T03:37:41;8.57;;;6.57;;
10884;SDS011;5495;53.252;10.390;2023-05-07T03:40:10;8.67;;;6.57;;
10884;SDS011;5495;53.252;10.390;2023-05-07T03:42:39;7.90;;;6.40;;
10884;SDS011;5495;53.252;10.390;2023-05-07T03:45:07;8.77;;;6.63;;
10884;SDS011;5495;53.252;10.390;2023-05-07T03:47:38;10.73;;;6.50;;
10884;SDS011;5495;53.252;10.390;2023-05-07T03:50:07;14.30;;;7.10;;
10884;SDS011;5495;53.252;10.390;2023-05-07T03:52:35;8.93;;;6.57;;
10884;SDS011;5495;53.252;10.390;2023-05-07T03:55:02;7.43;;;5.80;;
10884;SDS011;5495;53.252;10.390;2023-05-07T03:57:32;7.67;;;6.03;;
10884;SDS011;5495;53.252;10.390;2023-05-07T03:59:59;9.57;;;6.80;;
10884;SDS011;5495;53.252;10.390;2023-05-07T04:02:26;7.00;;;6.03;;
10884;SDS011;5495;53.252;10.390;2023-05-07T04:04:53;9.80;;;5.93;;
10884;SDS011;5495;53.252;10.390;2023-05-07T04:07:20;9.10;;;6.50;;
10884;SDS011;5495;53.252;10.390;2023-05-07T04:09:48;7.50;;;5.80;;
10884;SDS011;5495;53.252;10.390;2023-05-07T04:12:15;9.83;;;6.37;;
10884;SDS011;5495;53.252;10.390;2023-05-07T04:14:43;9.47;;;7.20;;
10884;SDS011;5495;53.252;10.390;2023-05-07T04:17:10;8.77;;;6.43;;
10884;SDS011;5495;53.252;10.390;2023-05-07T04:19:37;9.93;;;6.93;;
10884;SDS011;5495;53.252;10.390;2023-05-07T04:22:04;9.43;;;6.57;;
10884;SDS011;5495;53.252;10.390;2023-05-07T04:24:31;7.93;;;6.47;;
10884;SDS011;5495;53.252;10.390;2023-05-07T04:26:58;7.80;;;5.97;;
10884;SDS011;5495;53.252;10.390;2023-05-07T04:29:25;8.63;;;6.20;;
10884;SDS011;5495;53.252;10.390;2023-05-07T04:31:53;8.97;;;6.97;;
10884;SDS011;5495;53.252;10.390;2023-05-07T04:34:21;9.83;;;6.43;;
10884;SDS011;5495;53.252;10.390;2023-05-07T04:36:48;8.80;;;6.50;;
10884;SDS011;5495;53.252;10.390;2023-05-07T04:39:15;9.07;;;6.23;;
10884;SDS011;5495;53.252;10.390;2023-05-07T04:41:41;9.00;;;6.43;;
10884;SDS011;5495;53.252;10.390;2023-05-07T04:44:08;10.80;;;6.33;;
10884;SDS011;5495;53.252;10.390;2023-05-07T04:46:35;11.30;;;6.20;;
10884;SDS011;5495;53.252;10.390;2023-05-07T04:49:04;7.97;;;5.80;;
10884;SDS011;5495;53.252;10.390;2023-05-07T04:51:31;7.73;;;5.40;;
10884;SDS011;5495;53.252;10.390;2023-05-07T04:53:58;7.27;;;5.97;;
10884;SDS011;5495;53.252;10.390;2023-05-07T04:56:27;8.53;;;5.93;;
10884;SDS011;5495;53.252;10.390;2023-05-07T04:58:54;7.63;;;5.80;;
10884;SDS011;5495;53.252;10.390;2023-05-07T05:01:20;7.30;;;6.27;;
10884;SDS011;5495;53.252;10.390;2023-05-07T05:03:47;8.43;;;6.23;;
10884;SDS011;5495;53.252;10.390;2023-05-07T05:06:16;7.67;;;5.83;;
10884;SDS011;5495;53.252;10.390;2023-05-07T05:08:42;8.63;;;5.90;;
10884;SDS011;5495;53.252;10.390;2023-05-07T05:11:09;6.60;;;5.30;;
10884;SDS011;5495;53.252;10.390;2023-05-07T05:13:36;7.93;;;5.73;;
10884;SDS011;5495;53.252;10.390;2023-05-07T05:16:03;8.37;;;5.60;;
10884;SDS011;5495;53.252;10.390;2023-05-07T05:18:31;6.57;;;5.23;;
10884;SDS011;5495;53.252;10.390;2023-05-07T05:20:57;7.47;;;5.13;;
10884;SDS011;5495;53.252;10.390;2023-05-07T05:23:26;7.70;;;5.37;;
10884;SDS011;5495;53.252;10.390;2023-05-07T05:25:55;7.87;;;5.53;;
10884;SDS011;5495;53.252;10.390;2023-05-07T05:28:22;6.67;;;5.37;;
10884;SDS011;5495;53.252;10.390;2023-05-07T05:30:49;10.27;;;5.90;;
10884;SDS011;5495;53.252;10.390;2023-05-07T05:33:16;6.23;;;5.30;;
10884;SDS011;5495;53.252;10.390;2023-05-07T05:35:43;6.83;;;5.70;;
10884;SDS011;5495;53.252;10.390;2023-05-07T05:38:10;8.50;;;5.77;;
10884;SDS011;5495;53.252;10.390;2023-05-07T05:40:38;7.60;;;5.57;;
10884;SDS011;5495;53.252;10.390;2023-05-07T05:43:07;8.97;;;6.00;;
10884;SDS011;5495;53.252;10.390;2023-05-07T05:45:34;7.60;;;5.77;;
10884;SDS011;5495;53.252;10.390;2023-05-07T05:48:01;7.90;;;5.80;;
10884;SDS011;5495;53.252;10.390;2023-05-07T05:50:28;7.27;;;5.80;;
10884;SDS011;5495;53.252;10.390;2023-05-07T05:52:58;8.73;;;5.67;;
10884;SDS011;5495;53.252;10.390;2023-05-07T05:55:24;8.57;;;5.70;;
10884;SDS011;5495;53.252;10.390;2023-05-07T05:57:53;6.47;;;5.23;;
10884;SDS011;5495;53.252;10.390;2023-05-07T06:00:19;8.70;;;5.90;;
10884;SDS011;5495;53.252;10.390;2023-05-07T06:02:47;6.60;;;5.13;;
10884;SDS011;5495;53.252;10.390;2023-05-07T06:05:14;8.77;;;5.40;;
10884;SDS011;5495;53.252;10.390;2023-05-07T06:07:41;8.63;;;5.70;;
10884;SDS011;5495;53.252;10.390;2023-05-07T06:10:08;7.23;;;5.73;;
10884;SDS011;5495;53.252;10.390;2023-05-07T06:12:35;8.03;;;5.23;;
10884;SDS011;5495;53.252;10.390;2023-05-07T06:15:04;8.00;;;5.80;;
10884;SDS011;5495;53.252;10.390;2023-05-07T06:17:31;8.00;;;5.70;;
10884;SDS011;5495;53.252;10.390;2023-05-07T06:19:58;12.00;;;6.00;;
10884;SDS011;5495;53.252;10.390;2023-05-07T06:22:25;7.00;;;5.53;;
10884;SDS011;5495;53.252;10.390;2023-05-07T06:24:52;7.53;;;5.80;;
10884;SDS011;5495;53.252;10.390;2023-05-07T06:27:19;7.77;;;5.37;;
10884;SDS011;5495;53.252;10.390;2023-05-07T06:29:47;7.87;;;5.17;;
10884;SDS011;5495;53.252;10.390;2023-05-07T06:32:16;6.13;;;5.10;;
10884;SDS011;5495;53.252;10.390;2023-05-07T06:34:43;8.17;;;5.57;;
10884;SDS011;5495;53.252;10.390;2023-05-07T06:37:10;7.13;;;5.40;;
10884;SDS011;5495;53.252;10.390;2023-05-07T06:39:36;6.30;;;4.90;;
10884;SDS011;5495;53.252;10.390;2023-05-07T06:42:03;6.90;;;5.07;;
10884;SDS011;5495;53.252;10.390;2023-05-07T06:44:30;7.90;;;5.27;;
10884;SDS011;5495;53.252;10.390;2023-05-07T06:46:58;7.03;;;5.20;;
10884;SDS011;5495;53.252;10.390;2023-05-07T06:49:26;6.33;;;4.70;;
10884;SDS011;5495;53.252;10.390;2023-05-07T06:51:53;7.37;;;5.00;;
10884;SDS011;5495;53.252;10.390;2023-05-07T06:54:20;8.07;;;5.03;;
10884;SDS011;5495;53.252;10.390;2023-05-07T06:56:48;6.57;;;4.90;;
10884;SDS011;5495;53.252;10.390;2023-05-07T06:59:15;6.70;;;5.00;;
10884;SDS011;5495;53.252;10.390;2023-05-07T07:01:42;8.57;;;5.77;;
10884;SDS011;5495;53.252;10.390;2023-05-07T07:04:09;5.63;;;4.80;;
10884;SDS011;5495;53.252;10.390;2023-05-07T07:06:37;8.43;;;5.00;;
10884;SDS011;5495;53.252;10.390;2023-05-07T07:09:04;4.77;;;3.93;;
10884;SDS011;5495;53.252;10.390;2023-05-07T07:11:31;5.80;;;4.43;;
10884;SDS011;5495;53.252;10.390;2023-05-07T07:13:58;6.37;;;4.57;;
10884;SDS011;5495;53.252;10.390;2023-05-07T07:16:25;7.07;;;4.80;;
10884;SDS011;5495;53.252;10.390;2023-05-07T07:18:51;11.33;;;5.23;;
10884;SDS011;5495;53.252;10.390;2023-05-07T07:21:18;4.87;;;4.37;;
10884;SDS011;5495;53.252;10.390;2023-05-07T07:23:46;4.90;;;4.30;;
10884;SDS011;5495;53.252;10.390;2023-05-07T07:26:13;6.00;;;4.13;;
10884;SDS011;5495;53.252;10.390;2023-05-07T07:28:43;6.27;;;4.30;;
10884;SDS011;5495;53.252;10.390;2023-05-07T07:31:11;6.70;;;4.70;;
10884;SDS011;5495;53.252;10.390;2023-05-07T07:33:38;5.87;;;4.50;;
10884;SDS011;5495;53.252;10.390;2023-05-07T07:36:05;5.70;;;4.47;;
10884;SDS011;5495;53.252;10.390;2023-05-07T07:38:33;5.77;;;4.80;;
10884;SDS011;5495;53.252;10.390;2023-05-07T07:41:02;5.03;;;4.50;;
10884;SDS011;5495;53.252;10.390;2023-05-07T07:43:31;6.27;;;4.30;;
10884;SDS011;5495;53.252;10.390;2023-05-07T07:46:00;5.53;;;4.00;;
10884;SDS011;5495;53.252;10.390;2023-05-07T07:48:27;4.93;;;3.93;;
10884;SDS011;5495;53.252;10.390;2023-05-07T07:50:54;4.20;;;3.50;;
10884;SDS011;5495;53.252;10.390;2023-05-07T07:53:21;4.70;;;3.77;;
10884;SDS011;5495;53.252;10.390;2023-05-07T07:55:48;5.57;;;4.20;;
10884;SDS011;5495;53.252;10.390;2023-05-07T07:58:16;6.00;;;3.90;;
10884;SDS011;5495;53.252;10.390;2023-05-07T08:00:43;6.40;;;4.10;;
10884;SDS011;5495;53.252;10.390;2023-05-07T08:03:10;5.63;;;4.30;;
10884;SDS011;5495;53.252;10.390;2023-05-07T08:05:37;5.77;;;4.27;;
10884;SDS011;5495;53.252;10.390;2023-05-07T08:08:04;4.43;;;3.90;;
10884;SDS011;5495;53.252;10.390;2023-05-07T08:10:35;4.27;;;3.63;;
10884;SDS011;5495;53.252;10.390;2023-05-07T08:13:04;5.60;;;4.00;;
10884;SDS011;5495;53.252;10.390;2023-05-07T08:15:34;5.13;;;3.90;;
10884;SDS011;5495;53.252;10.390;2023-05-07T08:18:01;6.50;;;4.80;;
10884;SDS011;5495;53.252;10.390;2023-05-07T08:20:28;6.30;;;4.50;;
10884;SDS011;5495;53.252;10.390;2023-05-07T08:23:04;6.13;;;4.60;;
10884;SDS011;5495;53.252;10.390;2023-05-07T08:25:32;4.93;;;4.10;;
10884;SDS011;5495;53.252;10.390;2023-05-07T08:27:59;5.73;;;4.90;;
10884;SDS011;5495;53.252;10.390;2023-05-07T08:30:26;6.07;;;4.50;;
10884;SDS011;5495;53.252;10.390;2023-05-07T08:32:54;6.20;;;4.70;;
10884;SDS011;5495;53.252;10.390;2023-05-07T08:35:21;9.00;;;4.77;;
10884;SDS011;5495;53.252;10.390;2023-05-07T08:37:48;6.83;;;4.57;;
10884;SDS011;5495;53.252;10.390;2023-05-07T08:40:15;6.13;;;4.67;;
10884;SDS011;5495;53.252;10.390;2023-05-07T08:42:42;6.33;;;4.60;;
10884;SDS011;5495;53.252;10.390;2023-05-07T08:45:10;6.43;;;5.20;;
10884;SDS011;5495;53.252;10.390;2023-05-07T08:47:40;4.93;;;4.30;;
10884;SDS011;5495;53.252;10.390;2023-05-07T08:50:12;6.20;;;4.83;;
10884;SDS011;5495;53.252;10.390;2023-05-07T08:52:39;6.20;;;4.93;;
10884;SDS011;5495;53.252;10.390;2023-05-07T08:55:06;5.47;;;4.93;;
10884;SDS011;5495;53.252;10.390;2023-05-07T08:57:34;6.30;;;5.17;;
10884;SDS011;5495;53.252;10.390;2023-05-07T09:00:01;5.63;;;4.70;;
10884;SDS011;5495;53.252;10.390;2023-05-07T09:02:29;7.47;;;5.30;;
10884;SDS011;5495;53.252;10.390;2023-05-07T09:04:56;7.00;;;5.03;;
10884;SDS011;5495;53.252;10.390;2023-05-07T09:07:24;7.27;;;5.97;;
10884;SDS011;5495;53.252;10.390;2023-05-07T09:09:51;6.47;;;5.03;;
10884;SDS011;5495;53.252;10.390;2023-05-07T09:12:20;6.17;;;5.07;;
10884;SDS011;5495;53.252;10.390;2023-05-07T09:14:47;5.43;;;4.87;;
10884;SDS011;5495;53.252;10.390;2023-05-07T09:17:15;7.27;;;4.90;;
10884;SDS011;5495;53.252;10.390;2023-05-07T09:19:43;8.23;;;4.83;;
10884;SDS011;5495;53.252;10.390;2023-05-07T09:22:10;7.47;;;5.27;;
10884;SDS011;5495;53.252;10.390;2023-05-07T09:24:38;8.10;;;5.43;;
10884;SDS011;5495;53.252;10.390;2023-05-07T09:27:05;7.00;;;5.43;;
10884;SDS011;5495;53.252;10.390;2023-05-07T09:29:34;5.93;;;5.23;;
10884;SDS011;5495;53.252;10.390;2023-05-07T09:32:01;5.80;;;5.20;;
10884;SDS011;5495;53.252;10.390;2023-05-07T09:34:29;6.50;;;5.20;;
10884;SDS011;5495;53.252;10.390;2023-05-07T09:36:56;7.87;;;5.63;;
10884;SDS011;5495;53.252;10.390;2023-05-07T09:39:23;7.20;;;5.57;;
10884;SDS011;5495;53.252;10.390;2023-05-07T09:41:51;6.40;;;5.40;;
10884;SDS011;5495;53.252;10.390;2023-05-07T09:44:20;8.13;;;5.87;;
10884;SDS011;5495;53.252;10.390;2023-05-07T09:46:47;7.53;;;5.90;;
10884;SDS011;5495;53.252;10.390;2023-05-07T09:49:20;6.97;;;5.27;;
10884;SDS011;5495;53.252;10.390;2023-05-07T09:51:50;6.43;;;5.50;;
10884;SDS011;5495;53.252;10.390;2023-05-07T09:54:18;7.77;;;5.23;;
10884;SDS011;5495;53.252;10.390;2023-05-07T09:56:45;7.17;;;5.23;;
10884;SDS011;5495;53.252;10.390;2023-05-07T09:59:18;6.77;;;5.33;;
10884;SDS011;5495;53.252;10.390;2023-05-07T10:01:47;8.37;;;5.13;;
10884;SDS011;5495;53.252;10.390;2023-05-07T10:04:15;7.07;;;5.50;;
10884;SDS011;5495;53.252;10.390;2023-05-07T10:06:43;5.60;;;5.00;;
10884;SDS011;5495;53.252;10.390;2023-05-07T10:09:12;8.87;;;5.83;;
10884;SDS011;5495;53.252;10.390;2023-05-07T10:11:40;7.23;;;4.90;;
10884;SDS011;5495;53.252;10.390;2023-05-07T10:14:08;6.67;;;5.50;;
10884;SDS011;5495;53.252;10.390;2023-05-07T10:16:37;6.40;;;5.17;;
10884;SDS011;5495;53.252;10.390;2023-05-07T10:19:05;5.50;;;4.90;;
10884;SDS011;5495;53.252;10.390;2023-05-07T10:21:35;6.27;;;5.63;;
10884;SDS011;5495;53.252;10.390;2023-05-07T10:24:03;7.13;;;5.47;;
10884;SDS011;5495;53.252;10.390;2023-05-07T10:26:33;7.17;;;5.10;;
10884;SDS011;5495;53.252;10.390;2023-05-07T10:29:07;5.80;;;4.97;;
10884;SDS011;5495;53.252;10.390;2023-05-07T10:34:34;8.03;;;4.80;;
10884;SDS011;5495;53.252;10.390;2023-05-07T10:37:05;6.03;;;4.67;;
10884;SDS011;5495;53.252;10.390;2023-05-07T10:39:33;8.73;;;5.20;;
10884;SDS011;5495;53.252;10.390;2023-05-07T10:42:07;5.63;;;5.03;;
10884;SDS011;5495;53.252;10.390;2023-05-07T10:44:34;6.43;;;5.00;;
10884;SDS011;5495;53.252;10.390;2023-05-07T10:47:10;5.43;;;4.77;;
10884;SDS011;5495;53.252;10.390;2023-05-07T10:52:38;5.33;;;4.57;;
10884;SDS011;5495;53.252;10.390;2023-05-07T10:55:18;6.83;;;4.37;;
10884;SDS011;5495;53.252;10.390;2023-05-07T10:57:46;5.97;;;4.87;;
10884;SDS011;5495;53.252;10.390;2023-05-07T11:03:10;5.93;;;4.37;;
10884;SDS011;5495;53.252;10.390;2023-05-07T11:05:37;5.27;;;4.50;;
10884;SDS011;5495;53.252;10.390;2023-05-07T11:08:05;6.20;;;4.40;;
10884;SDS011;5495;53.252;10.390;2023-05-07T11:10:48;4.90;;;4.40;;
10884;SDS011;5495;53.252;10.390;2023-05-07T11:13:17;5.97;;;4.27;;
10884;SDS011;5495;53.252;10.390;2023-05-07T11:15:45;5.03;;;4.03;;
10884;SDS011;5495;53.252;10.390;2023-05-07T11:18:16;6.40;;;4.30;;
10884;SDS011;5495;53.252;10.390;2023-05-07T11:20:54;4.80;;;4.20;;
10884;SDS011;5495;53.252;10.390;2023-05-07T11:26:23;5.03;;;3.80;;
10884;SDS011;5495;53.252;10.390;2023-05-07T11:28:51;5.73;;;4.37;;
10884;SDS011;5495;53.252;10.390;2023-05-07T11:31:26;6.23;;;3.90;;
10884;SDS011;5495;53.252;10.390;2023-05-07T11:33:56;5.47;;;3.30;;
10884;SDS011;5495;53.252;10.390;2023-05-07T11:36:24;4.30;;;3.87;;
10884;SDS011;5495;53.252;10.390;2023-05-07T11:38:52;4.50;;;3.80;;
10884;SDS011;5495;53.252;10.390;2023-05-07T11:41:19;4.67;;;3.47;;
10884;SDS011;5495;53.252;10.390;2023-05-07T11:43:54;4.43;;;3.80;;
10884;SDS011;5495;53.252;10.390;2023-05-07T11:46:24;4.43;;;3.47;;
10884;SDS011;5495;53.252;10.390;2023-05-07T11:48:52;4.17;;;3.50;;
10884;SDS011;5495;53.252;10.390;2023-05-07T11:51:24;3.40;;;3.07;;
10884;SDS011;5495;53.252;10.390;2023-05-07T11:53:52;3.67;;;3.10;;
10884;SDS011;5495;53.252;10.390;2023-05-07T11:56:19;4.07;;;2.97;;
10884;SDS011;5495;53.252;10.390;2023-05-07T11:58:47;3.20;;;2.90;;
10884;SDS011;5495;53.252;10.390;2023-05-07T12:01:15;3.07;;;2.70;;
10884;SDS011;5495;53.252;10.390;2023-05-07T12:03:44;4.60;;;3.20;;
10884;SDS011;5495;53.252;10.390;2023-05-07T12:06:12;3.63;;;3.13;;
10884;SDS011;5495;53.252;10.390;2023-05-07T12:08:42;4.73;;;3.30;;
10884;SDS011;5495;53.252;10.390;2023-05-07T12:11:10;3.83;;;3.43;;
10884;SDS011;5495;53.252;10.390;2023-05-07T12:13:40;3.80;;;2.80;;
10884;SDS011;5495;53.252;10.390;2023-05-07T12:16:07;5.07;;;2.67;;
10884;SDS011;5495;53.252;10.390;2023-05-07T12:18:35;3.47;;;2.80;;
10884;SDS011;5495;53.252;10.390;2023-05-07T12:21:03;3.30;;;3.00;;
10884;SDS011;5495;53.252;10.390;2023-05-07T12:23:33;3.23;;;2.77;;
10884;SDS011;5495;53.252;10.390;2023-05-07T12:26:05;3.33;;;3.03;;
10884;SDS011;5495;53.252;10.390;2023-05-07T12:28:36;4.00;;;2.87;;
10884;SDS011;5495;53.252;10.390;2023-05-07T12:31:04;4.47;;;3.47;;
10884;SDS011;5495;53.252;10.390;2023-05-07T12:33:32;3.77;;;3.30;;
10884;SDS011;5495;53.252;10.390;2023-05-07T12:36:02;4.73;;;3.17;;
10884;SDS011;5495;53.252;10.390;2023-05-07T12:38:34;4.40;;;2.57;;
10884;SDS011;5495;53.252;10.390;2023-05-07T12:41:02;3.30;;;2.90;;
10884;SDS011;5495;53.252;10.390;2023-05-07T12:43:31;4.23;;;2.63;;
10884;SDS011;5495;53.252;10.390;2023-05-07T12:46:00;3.23;;;2.50;;
10884;SDS011;5495;53.252;10.390;2023-05-07T12:48:30;3.20;;;2.60;;
10884;SDS011;5495;53.252;10.390;2023-05-07T12:50:58;3.80;;;2.97;;
10884;SDS011;5495;53.252;10.390;2023-05-07T12:53:26;3.20;;;2.70;;
10884;SDS011;5495;53.252;10.390;2023-05-07T12:55:54;3.80;;;2.83;;
10884;SDS011;5495;53.252;10.390;2023-05-07T12:58:24;2.73;;;2.43;;
10884;SDS011;5495;53.252;10.390;2023-05-07T13:00:53;2.87;;;2.50;;
10884;SDS011;5495;53.252;10.390;2023-05-07T13:03:24;2.30;;;2.03;;
10884;SDS011;5495;53.252;10.390;2023-05-07T13:05:54;2.50;;;2.30;;
10884;SDS011;5495;53.252;10.390;2023-05-07T13:08:25;2.73;;;2.47;;
10884;SDS011;5495;53.252;10.390;2023-05-07T13:10:53;3.07;;;2.27;;
10884;SDS011;5495;53.252;10.390;2023-05-07T13:13:20;2.43;;;2.23;;
10884;SDS011;5495;53.252;10.390;2023-05-07T13:15:47;2.10;;;1.90;;
10884;SDS011;5495;53.252;10.390;2023-05-07T13:18:15;2.83;;;2.30;;
10884;SDS011;5495;53.252;10.390;2023-05-07T13:20:43;3.90;;;2.37;;
10884;SDS011;5495;53.252;10.390;2023-05-07T13:23:10;1.97;;;1.87;;
10884;SDS011;5495;53.252;10.390;2023-05-07T13:25:36;2.57;;;2.27;;
10884;SDS011;5495;53.252;10.390;2023-05-07T13:28:03;2.20;;;1.80;;
10884;SDS011;5495;53.252;10.390;2023-05-07T13:30:37;3.13;;;1.90;;
10884;SDS011;5495;53.252;10.390;2023-05-07T13:33:03;3.00;;;2.10;;
10884;SDS011;5495;53.252;10.390;2023-05-07T13:35:32;1.93;;;1.73;;
10884;SDS011;5495;53.252;10.390;2023-05-07T13:37:59;2.47;;;1.93;;
10884;SDS011;5495;53.252;10.390;2023-05-07T13:40:26;2.30;;;1.90;;
10884;SDS011;5495;53.252;10.390;2023-05-07T13:42:54;2.43;;;1.97;;
10884;SDS011;5495;53.252;10.390;2023-05-07T13:45:23;1.80;;;1.50;;
10884;SDS011;5495;53.252;10.390;2023-05-07T13:47:50;2.27;;;1.87;;
10884;SDS011;5495;53.252;10.390;2023-05-07T13:50:18;4.10;;;1.80;;
10884;SDS011;5495;53.252;10.390;2023-05-07T13:52:46;1.90;;;1.70;;
10884;SDS011;5495;53.252;10.390;2023-05-07T13:55:15;2.30;;;1.70;;
10884;SDS011;5495;53.252;10.390;2023-05-07T13:57:42;2.50;;;2.13;;
10884;SDS011;5495;53.252;10.390;2023-05-07T14:00:10;3.50;;;1.90;;
10884;SDS011;5495;53.252;10.390;2023-05-07T14:02:38;2.40;;;1.97;;
10884;SDS011;5495;53.252;10.390;2023-05-07T14:05:05;1.90;;;1.80;;
10884;SDS011;5495;53.252;10.390;2023-05-07T14:07:33;2.27;;;1.70;;
10884;SDS011;5495;53.252;10.390;2023-05-07T14:10:02;2.00;;;1.60;;
10884;SDS011;5495;53.252;10.390;2023-05-07T14:12:29;1.97;;;1.70;;
10884;SDS011;5495;53.252;10.390;2023-05-07T14:14:57;2.27;;;2.03;;
10884;SDS011;5495;53.252;10.390;2023-05-07T14:17:24;2.73;;;1.80;;
10884;SDS011;5495;53.252;10.390;2023-05-07T14:19:52;1.93;;;1.73;;
10884;SDS011;5495;53.252;10.390;2023-05-07T14:22:19;2.00;;;1.80;;
10884;SDS011;5495;53.252;10.390;2023-05-07T14:24:46;1.90;;;1.70;;
10884;SDS011;5495;53.252;10.390;2023-05-07T14:27:15;1.70;;;1.60;;
10884;SDS011;5495;53.252;10.390;2023-05-07T14:29:42;2.50;;;1.80;;
10884;SDS011;5495;53.252;10.390;2023-05-07T14:32:10;2.87;;;1.57;;
10884;SDS011;5495;53.252;10.390;2023-05-07T14:34:37;2.23;;;1.70;;
10884;SDS011;5495;53.252;10.390;2023-05-07T14:37:04;2.97;;;1.60;;
10884;SDS011;5495;53.252;10.390;2023-05-07T14:39:31;1.60;;;1.50;;
10884;SDS011;5495;53.252;10.390;2023-05-07T14:41:57;2.47;;;1.83;;
10884;SDS011;5495;53.252;10.390;2023-05-07T14:44:27;2.03;;;1.70;;
10884;SDS011;5495;53.252;10.390;2023-05-07T14:46:54;3.00;;;1.70;;
10884;SDS011;5495;53.252;10.390;2023-05-07T14:49:21;1.80;;;1.70;;
10884;SDS011;5495;53.252;10.390;2023-05-07T14:51:48;1.77;;;1.67;;
10884;SDS011;5495;53.252;10.390;2023-05-07T14:54:15;2.33;;;2.00;;
10884;SDS011;5495;53.252;10.390;2023-05-07T14:56:44;2.10;;;1.90;;
10884;SDS011;5495;53.252;10.390;2023-05-07T14:59:11;1.93;;;1.73;;
10884;SDS011;5495;53.252;10.390;2023-05-07T15:01:40;1.57;;;1.43;;
10884;SDS011;5495;53.252;10.390;2023-05-07T15:04:10;2.10;;;1.90;;